createdAt,value
2022-09-07T00:00:36.545Z,12.10
2022-09-07T00:03:03.256Z,12.10
2022-09-07T00:05:30.817Z,12.10
2022-09-07T00:07:59.193Z,12.10
2022-09-07T00:10:25.838Z,12.10
2022-09-07T00:12:52.244Z,12.00
2022-09-07T00:15:18.810Z,12.10
2022-09-07T00:17:45.068Z,12.10
2022-09-07T00:22:56.277Z,12.10
2022-09-07T00:25:22.822Z,12.10
2022-09-07T00:27:49.078Z,12.10
2022-09-07T00:30:15.406Z,12.10
2022-09-07T00:32:41.708Z,12.20
2022-09-07T00:35:08.966Z,12.20
2022-09-07T00:37:35.216Z,12.20
2022-09-07T00:40:02.717Z,12.20
2022-09-07T00:42:29.483Z,12.30
2022-09-07T00:46:00.151Z,12.40
2022-09-07T00:48:32.280Z,12.50
2022-09-07T00:51:01.232Z,13.00
2022-09-07T00:53:32.623Z,12.60
2022-09-07T00:55:59.009Z,12.60
2022-09-07T00:58:25.876Z,12.70
2022-09-07T01:00:52.291Z,12.80
2022-09-07T01:03:22.368Z,12.80
2022-09-07T01:05:55.838Z,12.70
2022-09-07T01:08:22.601Z,12.70
2022-09-07T01:10:49.113Z,12.80
2022-09-07T01:13:15.418Z,12.80
2022-09-07T01:16:10.858Z,12.80
2022-09-07T01:19:35.415Z,14.50
2022-09-07T01:22:30.966Z,12.60
2022-09-07T01:25:10.457Z,12.50
2022-09-07T01:29:14.012Z,12.40
2022-09-07T01:34:00.853Z,12.30
2022-09-07T01:38:10.394Z,12.30
2022-09-07T01:41:01.372Z,12.20
2022-09-07T01:43:53.774Z,12.10
2022-09-07T01:47:17.079Z,12.00
2022-09-07T01:49:50.609Z,11.90
2022-09-07T01:53:49.496Z,11.90
2022-09-07T01:56:21.764Z,11.90
2022-09-07T01:59:15.809Z,11.80
2022-09-07T02:01:47.551Z,11.80
2022-09-07T02:04:25.154Z,11.80
2022-09-07T02:07:30.574Z,11.90
2022-09-07T02:09:59.346Z,11.90
2022-09-07T02:12:41.617Z,12.00
2022-09-07T02:15:20.773Z,12.00
2022-09-07T02:17:49.571Z,12.10
2022-09-07T02:20:23.230Z,12.10
2022-09-07T02:22:53.049Z,12.10
2022-09-07T02:25:27.076Z,12.10
2022-09-07T02:27:56.768Z,12.20
2022-09-07T02:30:23.041Z,12.20
2022-09-07T02:32:49.663Z,12.20
2022-09-07T02:35:16.076Z,12.30
2022-09-07T02:37:42.506Z,12.30
2022-09-07T02:40:10.241Z,12.30
2022-09-07T02:42:36.537Z,12.40
2022-09-07T02:45:04.815Z,12.40
2022-09-07T02:49:26.683Z,12.40
2022-09-07T02:52:20.761Z,12.30
2022-09-07T02:58:37.584Z,12.20
2022-09-07T03:01:33.005Z,12.20
2022-09-07T03:04:15.926Z,12.10
2022-09-07T03:06:54.802Z,12.10
2022-09-07T03:09:24.712Z,12.10
2022-09-07T03:11:51.022Z,12.00
2022-09-07T03:14:22.499Z,12.10
2022-09-07T03:16:54.000Z,12.10
2022-09-07T03:19:20.548Z,13.40
2022-09-07T03:21:47.022Z,12.10
2022-09-07T03:24:13.329Z,12.10
2022-09-07T03:26:47.024Z,12.00
2022-09-07T03:29:13.890Z,12.00
2022-09-07T03:31:40.178Z,11.90
2022-09-07T03:34:06.651Z,11.90
2022-09-07T03:36:33.061Z,11.80
2022-09-07T03:38:59.306Z,11.70
2022-09-07T03:41:26.520Z,11.60
2022-09-07T03:43:52.858Z,11.40
2022-09-07T03:46:19.159Z,11.40
2022-09-07T03:48:49.126Z,11.40
2022-09-07T03:51:17.077Z,11.30
2022-09-07T03:53:44.868Z,11.20
2022-09-07T03:56:17.485Z,11.10
2022-09-07T03:58:44.524Z,11.00
2022-09-07T04:01:16.700Z,11.00
2022-09-07T04:03:43.720Z,11.00
2022-09-07T04:06:10.125Z,11.00
2022-09-07T04:08:37.123Z,11.00
2022-09-07T04:11:05.047Z,11.10
2022-09-07T04:13:32.000Z,11.10
2022-09-07T04:15:58.287Z,11.10
2022-09-07T04:18:24.864Z,11.10
2022-09-07T04:20:52.098Z,11.10
2022-09-07T04:23:18.618Z,11.10
2022-09-07T04:25:48.768Z,11.10
2022-09-07T04:28:16.422Z,11.20
2022-09-07T04:30:43.654Z,11.10
2022-09-07T04:33:09.986Z,11.10
2022-09-07T04:35:39.913Z,11.10
2022-09-07T04:38:06.394Z,11.00
2022-09-07T04:40:33.503Z,11.10
2022-09-07T04:43:00.111Z,11.10
2022-09-07T04:45:26.750Z,11.10
2022-09-07T04:47:53.285Z,11.10
2022-09-07T04:50:19.552Z,11.20
2022-09-07T04:52:46.048Z,11.20
2022-09-07T04:55:12.792Z,11.30
2022-09-07T04:57:39.131Z,11.30
2022-09-07T05:00:12.653Z,11.40
2022-09-07T05:02:39.247Z,11.50
2022-09-07T05:05:06.773Z,11.50
2022-09-07T05:07:33.247Z,11.60
2022-09-07T05:09:59.599Z,11.70
2022-09-07T05:12:25.958Z,11.70
2022-09-07T05:14:52.557Z,11.80
2022-09-07T05:17:19.295Z,11.90
2022-09-07T05:19:45.929Z,12.00
2022-09-07T05:22:12.247Z,12.20
2022-09-07T05:24:38.823Z,12.20
2022-09-07T05:27:05.486Z,12.30
2022-09-07T05:32:28.102Z,12.60
2022-09-07T05:34:54.398Z,12.70
2022-09-07T05:37:20.855Z,12.70
2022-09-07T05:39:47.667Z,12.80
2022-09-07T05:42:14.267Z,12.90
2022-09-07T05:44:44.081Z,13.00
2022-09-07T05:47:11.298Z,13.20
2022-09-07T05:49:37.634Z,13.40
2022-09-07T05:52:03.939Z,13.60
2022-09-07T05:54:30.203Z,14.10
2022-09-07T05:56:56.717Z,14.40
2022-09-07T05:59:23.244Z,14.70
2022-09-07T06:01:49.630Z,14.70
2022-09-07T06:04:16.177Z,15.00
2022-09-07T06:06:47.799Z,15.10
2022-09-07T06:09:29.821Z,15.40
2022-09-07T06:11:57.021Z,15.90
2022-09-07T06:14:23.282Z,16.00
2022-09-07T06:16:49.819Z,16.00
2022-09-07T06:19:16.584Z,15.90
2022-09-07T06:21:43.058Z,15.90
2022-09-07T06:24:09.653Z,16.10
2022-09-07T06:26:36.134Z,16.10
2022-09-07T06:29:03.094Z,16.50
2022-09-07T06:31:29.561Z,17.20
2022-09-07T06:33:57.184Z,17.50
2022-09-07T06:36:26.718Z,18.10
2022-09-07T06:38:54.751Z,18.70
2022-09-07T06:44:21.622Z,19.90
2022-09-07T06:47:03.696Z,19.70
2022-09-07T06:49:30.757Z,19.60
2022-09-07T06:51:57.059Z,19.60
2022-09-07T06:57:19.744Z,19.80
2022-09-07T06:59:46.086Z,20.50
2022-09-07T07:02:15.274Z,21.30
2022-09-07T07:04:41.693Z,21.20
2022-09-07T07:07:12.031Z,22.50
2022-09-07T07:09:38.550Z,23.90
2022-09-07T07:12:04.945Z,24.20
2022-09-07T07:14:34.384Z,23.10
2022-09-07T07:17:02.731Z,23.00
2022-09-07T07:19:29.058Z,23.50
2022-09-07T07:24:52.351Z,25.30
2022-09-07T07:27:20.832Z,25.70
2022-09-07T07:29:47.416Z,25.50
2022-09-07T07:32:13.739Z,25.50
2022-09-07T07:34:40.066Z,25.50
2022-09-07T07:37:06.558Z,24.30
2022-09-07T07:42:29.250Z,23.40
2022-09-07T07:47:55.097Z,23.40
2022-09-07T07:50:36.771Z,24.10
2022-09-07T07:56:03.402Z,23.80
2022-09-07T07:58:30.451Z,24.40
2022-09-07T08:01:10.711Z,24.20
2022-09-07T08:03:38.526Z,24.20
2022-09-07T08:06:12.630Z,24.50
2022-09-07T08:08:39.119Z,24.80
2022-09-07T08:11:09.683Z,25.20
2022-09-07T08:13:36.858Z,24.60
2022-09-07T08:16:03.349Z,25.10
2022-09-07T08:18:30.582Z,24.70
2022-09-07T08:21:04.692Z,23.90
2022-09-07T08:23:31.451Z,23.70
2022-09-07T08:25:58.491Z,24.40
2022-09-07T08:28:26.474Z,25.00
2022-09-07T08:30:52.983Z,23.90
2022-09-07T08:33:19.152Z,22.30
2022-09-07T08:35:59.956Z,23.00
2022-09-07T08:38:26.840Z,24.00
2022-09-07T08:40:53.098Z,24.00
2022-09-07T08:43:49.517Z,24.90
2022-09-07T08:46:58.358Z,25.60
2022-09-07T08:50:52.806Z,26.40
2022-09-07T08:53:19.372Z,25.50
2022-09-07T08:56:09.320Z,26.10
2022-09-07T08:58:52.959Z,24.90
2022-09-07T09:01:35.974Z,25.10
2022-09-07T09:04:20.451Z,24.20
2022-09-07T09:07:05.824Z,24.90
2022-09-07T09:09:51.389Z,26.00
2022-09-07T09:12:41.682Z,27.10
2022-09-07T09:15:25.739Z,27.30
2022-09-07T09:20:59.859Z,27.10
2022-09-07T09:23:27.920Z,26.50
2022-09-07T09:25:55.853Z,26.40
2022-09-07T09:28:22.176Z,27.40
2022-09-07T09:30:48.849Z,26.40
2022-09-07T09:33:26.187Z,26.00
2022-09-07T09:35:57.308Z,26.60
2022-09-07T09:38:39.821Z,26.30
2022-09-07T09:41:11.094Z,27.10
2022-09-07T09:44:13.465Z,26.50
2022-09-07T09:46:39.782Z,26.70
2022-09-07T09:49:35.013Z,26.70
2022-09-07T09:55:17.189Z,25.40
2022-09-07T10:04:20.302Z,24.80
2022-09-07T10:06:59.966Z,25.20
2022-09-07T10:09:39.900Z,26.20
2022-09-07T10:12:07.997Z,26.30
2022-09-07T10:14:44.770Z,26.10
2022-09-07T10:20:34.648Z,26.00
2022-09-07T10:23:01.239Z,25.90
2022-09-07T10:25:40.763Z,26.40
2022-09-07T10:28:25.361Z,26.10
2022-09-07T10:31:20.395Z,26.10
2022-09-07T10:34:26.147Z,26.00
2022-09-07T10:37:08.480Z,26.30
2022-09-07T10:39:37.262Z,26.10
2022-09-07T10:42:28.542Z,26.30
2022-09-07T10:48:02.370Z,27.10
2022-09-07T10:50:51.139Z,28.40
2022-09-07T10:55:34.153Z,28.00
2022-09-07T11:03:24.955Z,26.70
2022-09-07T11:06:39.496Z,27.70
2022-09-07T11:13:04.655Z,27.30
2022-09-07T11:15:35.581Z,27.80
2022-09-07T11:18:32.459Z,27.60
2022-09-07T11:21:00.738Z,26.90
2022-09-07T11:23:36.792Z,26.80
2022-09-07T11:26:53.813Z,27.20
2022-09-07T11:29:47.688Z,26.50
2022-09-07T11:32:23.378Z,26.80
2022-09-07T11:34:58.410Z,27.30
2022-09-07T11:37:59.004Z,27.60
2022-09-07T11:40:42.921Z,27.90
2022-09-07T11:43:23.540Z,27.50
2022-09-07T11:46:58.436Z,27.20
2022-09-07T11:49:29.889Z,26.40
2022-09-07T11:52:05.697Z,26.70
2022-09-07T11:54:49.770Z,27.30
2022-09-07T11:58:56.038Z,27.00
2022-09-07T12:01:51.478Z,26.90
2022-09-07T12:05:29.182Z,26.90
2022-09-07T12:10:57.056Z,26.80
2022-09-07T12:13:38.252Z,27.00
2022-09-07T12:16:17.668Z,26.80
2022-09-07T12:20:42.801Z,26.90
2022-09-07T12:23:25.042Z,25.90
2022-09-07T12:25:51.741Z,25.80
2022-09-07T12:29:45.191Z,25.50
2022-09-07T12:35:41.672Z,26.70
2022-09-07T12:40:46.819Z,27.00
2022-09-07T12:44:13.582Z,26.10
2022-09-07T12:46:48.443Z,26.20
2022-09-07T12:54:30.962Z,27.20
2022-09-07T12:57:30.623Z,26.80
2022-09-07T13:03:52.610Z,26.60
2022-09-07T13:09:20.278Z,26.60
2022-09-07T13:11:46.816Z,26.90
2022-09-07T13:14:28.502Z,27.20
2022-09-07T13:18:47.186Z,27.40
2022-09-07T13:22:22.817Z,27.00
2022-09-07T13:24:52.811Z,27.10
2022-09-07T13:27:40.186Z,26.90
2022-09-07T13:35:44.714Z,27.10
2022-09-07T13:38:11.365Z,26.50
2022-09-07T13:40:38.827Z,26.90
2022-09-07T13:43:05.254Z,26.80
2022-09-07T13:49:11.833Z,26.60
2022-09-07T13:51:51.472Z,26.60
2022-09-07T13:54:57.921Z,26.90
2022-09-07T13:57:31.959Z,26.80
2022-09-07T13:59:58.486Z,28.40
2022-09-07T14:02:34.363Z,26.80
2022-09-07T14:05:00.829Z,26.90
2022-09-07T14:07:28.828Z,27.10
2022-09-07T14:10:20.709Z,27.10
2022-09-07T14:13:03.481Z,27.00
2022-09-07T14:15:41.656Z,26.60
2022-09-07T14:18:15.616Z,26.80
2022-09-07T14:20:47.343Z,26.50
2022-09-07T14:23:31.371Z,26.20
2022-09-07T14:26:21.875Z,26.20
2022-09-07T14:28:52.953Z,26.30
2022-09-07T14:31:20.905Z,26.20
2022-09-07T14:33:52.195Z,26.20
2022-09-07T14:36:41.803Z,26.30
2022-09-07T14:39:12.461Z,26.30
2022-09-07T14:41:40.897Z,26.20
2022-09-07T14:44:28.189Z,26.10
2022-09-07T14:46:56.967Z,26.10
2022-09-07T14:49:24.033Z,26.00
2022-09-07T14:51:52.007Z,25.90
2022-09-07T14:54:32.473Z,25.90
2022-09-07T14:57:41.390Z,26.00
2022-09-07T15:00:29.559Z,25.90
2022-09-07T15:02:57.759Z,25.80
2022-09-07T15:05:26.545Z,25.70
2022-09-07T15:08:03.873Z,25.70
2022-09-07T15:10:41.634Z,25.80
2022-09-07T15:13:27.470Z,25.70
2022-09-07T15:16:07.498Z,25.40
2022-09-07T15:18:59.433Z,25.30
2022-09-07T15:21:37.367Z,25.50
2022-09-07T15:24:07.288Z,25.40
2022-09-07T15:29:42.058Z,25.40
2022-09-07T15:32:09.902Z,25.20
2022-09-07T15:34:37.791Z,25.00
2022-09-07T15:38:01.205Z,24.80
2022-09-07T15:40:29.077Z,24.80
2022-09-07T15:43:13.629Z,25.30
2022-09-07T15:45:41.663Z,24.70
2022-09-07T15:48:16.127Z,24.60
2022-09-07T15:50:42.417Z,24.60
2022-09-07T15:54:06.679Z,24.40
2022-09-07T15:56:36.884Z,24.40
2022-09-07T15:59:03.577Z,24.20
2022-09-07T16:04:27.896Z,24.00
2022-09-07T16:06:54.699Z,23.80
2022-09-07T16:09:22.050Z,23.60
2022-09-07T16:11:50.069Z,23.30
2022-09-07T16:14:19.018Z,23.20
2022-09-07T16:19:41.959Z,22.80
2022-09-07T16:23:13.140Z,22.60
2022-09-07T16:25:41.307Z,22.50
2022-09-07T16:28:07.590Z,22.40
2022-09-07T16:30:38.792Z,22.30
2022-09-07T16:33:06.138Z,22.10
2022-09-07T16:35:32.961Z,22.00
2022-09-07T16:40:56.367Z,21.90
2022-09-07T16:43:22.995Z,21.80
2022-09-07T16:46:03.477Z,21.70
2022-09-07T16:48:31.228Z,21.60
2022-09-07T16:51:01.980Z,21.40
2022-09-07T16:53:30.138Z,21.30
2022-09-07T16:56:10.697Z,21.20
2022-09-07T16:58:39.507Z,21.10
2022-09-07T17:01:07.162Z,20.90
2022-09-07T17:03:34.177Z,20.80
2022-09-07T17:06:00.936Z,20.80
2022-09-07T17:08:27.772Z,20.80
2022-09-07T17:11:29.698Z,20.80
2022-09-07T17:13:57.636Z,20.70
2022-09-07T17:16:27.390Z,20.60
2022-09-07T17:21:52.161Z,20.40
2022-09-07T17:24:19.676Z,20.30
2022-09-07T17:26:46.413Z,20.20
2022-09-07T17:29:13.388Z,20.00
2022-09-07T17:34:37.411Z,19.80
2022-09-07T17:37:05.354Z,19.70
2022-09-07T17:39:32.318Z,19.70
2022-09-07T17:41:59.560Z,19.80
2022-09-07T17:44:29.762Z,19.90
2022-09-07T17:46:59.706Z,20.10
2022-09-07T17:49:28.298Z,20.00
2022-09-07T17:51:57.028Z,20.10
2022-09-07T17:54:25.484Z,20.10
2022-09-07T17:56:52.037Z,20.20
2022-09-07T18:02:17.694Z,20.20
2022-09-07T18:04:47.077Z,20.10
2022-09-07T18:07:13.529Z,20.10
2022-09-07T18:09:40.563Z,20.00
2022-09-07T18:12:07.281Z,19.90
2022-09-07T18:14:33.708Z,19.80
2022-09-07T18:17:00.260Z,19.90
2022-09-07T18:19:27.379Z,19.80
2022-09-07T18:21:54.549Z,19.90
2022-09-07T18:24:22.334Z,20.00
2022-09-07T18:26:51.178Z,20.00
2022-09-07T18:29:28.686Z,20.00
2022-09-07T18:31:57.348Z,19.90
2022-09-07T18:34:24.383Z,19.80
2022-09-07T18:36:51.923Z,19.80
2022-09-07T18:39:18.420Z,19.70
2022-09-07T18:41:48.353Z,19.50
2022-09-07T18:47:20.810Z,19.40
2022-09-07T18:49:48.751Z,19.20
2022-09-07T18:55:11.569Z,19.10
2022-09-07T18:57:38.206Z,18.90
2022-09-07T19:00:09.215Z,18.80
2022-09-07T19:02:35.670Z,18.70
2022-09-07T19:07:59.415Z,18.50
2022-09-07T19:10:25.994Z,18.50
2022-09-07T19:12:52.631Z,18.50
2022-09-07T19:15:21.038Z,18.50
2022-09-07T19:17:48.156Z,18.50
2022-09-07T19:20:15.933Z,18.50
2022-09-07T19:22:43.290Z,18.50
2022-09-07T19:25:11.027Z,18.50
2022-09-07T19:27:38.330Z,18.40
2022-09-07T19:30:06.471Z,18.30
2022-09-07T19:32:34.914Z,18.30
2022-09-07T19:35:01.488Z,18.30
2022-09-07T19:37:30.827Z,18.20
2022-09-07T19:40:02.641Z,18.20
2022-09-07T19:42:29.359Z,18.20
2022-09-07T19:44:57.220Z,18.20
2022-09-07T19:47:24.890Z,18.10
2022-09-07T19:49:51.808Z,18.10
2022-09-07T19:52:20.459Z,18.00
2022-09-07T19:54:47.628Z,18.00
2022-09-07T19:57:15.036Z,18.00
2022-09-07T19:59:41.288Z,18.00
2022-09-07T20:02:10.196Z,18.00
2022-09-07T20:04:36.518Z,17.90
2022-09-07T20:07:04.286Z,17.80
2022-09-07T20:09:30.904Z,17.70
2022-09-07T20:11:58.047Z,17.80
2022-09-07T20:14:24.869Z,17.80
2022-09-07T20:16:55.116Z,17.70
2022-09-07T20:19:21.525Z,17.70
2022-09-07T20:21:49.294Z,17.70
2022-09-07T20:24:21.765Z,17.70
2022-09-07T20:26:48.607Z,17.70
2022-09-07T20:29:27.202Z,17.60
2022-09-07T20:32:00.308Z,17.90
2022-09-07T20:34:30.435Z,17.50
2022-09-07T20:36:57.311Z,17.40
2022-09-07T20:39:24.350Z,17.40
2022-09-07T20:41:51.170Z,17.30
2022-09-07T20:44:19.170Z,17.30
2022-09-07T20:46:45.714Z,17.20
2022-09-07T20:49:12.206Z,17.10
2022-09-07T20:51:38.879Z,17.00
2022-09-07T20:54:06.628Z,17.00
2022-09-07T20:56:33.477Z,16.90
2022-09-07T20:59:00.981Z,16.80
2022-09-07T21:01:28.791Z,16.80
2022-09-07T21:03:56.776Z,16.70
2022-09-07T21:06:23.662Z,16.70
2022-09-07T21:08:54.477Z,16.60
2022-09-07T21:11:22.988Z,16.60
2022-09-07T21:13:56.858Z,16.50
2022-09-07T21:16:23.538Z,16.60
2022-09-07T21:18:55.101Z,16.60
2022-09-07T21:21:22.953Z,16.60
2022-09-07T21:23:53.600Z,16.50
2022-09-07T21:26:20.368Z,16.50
2022-09-07T21:28:47.519Z,16.40
2022-09-07T21:31:14.394Z,16.40
2022-09-07T21:33:41.926Z,16.40
2022-09-07T21:36:09.997Z,16.30
2022-09-07T21:38:37.044Z,16.30
2022-09-07T21:41:15.205Z,16.30
2022-09-07T21:43:41.935Z,16.20
2022-09-07T21:46:09.874Z,16.10
2022-09-07T21:48:36.268Z,16.10
2022-09-07T21:51:03.383Z,16.10
2022-09-07T21:53:30.054Z,16.00
2022-09-07T21:56:00.865Z,16.00
2022-09-07T21:58:27.806Z,15.90
2022-09-07T22:00:54.919Z,16.00
2022-09-07T22:03:21.382Z,15.90
2022-09-07T22:05:47.659Z,15.80
2022-09-07T22:08:14.072Z,15.80
2022-09-07T22:10:41.289Z,15.80
2022-09-07T22:13:07.519Z,15.70
2022-09-07T22:15:36.988Z,15.60
2022-09-07T22:18:07.772Z,15.50
2022-09-07T22:20:34.230Z,15.60
2022-09-07T22:23:00.618Z,15.50
2022-09-07T22:25:26.816Z,15.50
2022-09-07T22:27:53.381Z,15.40
2022-09-07T22:30:19.717Z,15.40
2022-09-07T22:32:49.601Z,15.40
2022-09-07T22:35:17.553Z,15.40
2022-09-07T22:37:43.925Z,15.30
2022-09-07T22:40:11.759Z,15.20
2022-09-07T22:42:38.628Z,15.20
2022-09-07T22:45:06.208Z,15.10
2022-09-07T22:47:32.634Z,15.00
2022-09-07T22:49:59.387Z,14.90
2022-09-07T22:52:25.893Z,15.10
2022-09-07T22:54:52.125Z,15.20
2022-09-07T22:57:18.451Z,15.20
2022-09-07T22:59:44.643Z,15.20
2022-09-07T23:02:10.972Z,15.20
2022-09-07T23:04:37.304Z,15.20
2022-09-07T23:07:06.045Z,15.20
2022-09-07T23:09:32.217Z,15.30
2022-09-07T23:11:58.580Z,15.30
2022-09-07T23:14:24.910Z,15.30
2022-09-07T23:16:51.344Z,15.30
2022-09-07T23:19:19.313Z,15.30
2022-09-07T23:21:45.618Z,15.30
2022-09-07T23:24:13.329Z,15.30
2022-09-07T23:26:39.938Z,15.30
2022-09-07T23:29:06.368Z,15.20
2022-09-07T23:31:34.086Z,15.20
2022-09-07T23:34:01.058Z,15.20
2022-09-07T23:36:27.346Z,15.20
2022-09-07T23:38:55.602Z,15.20
2022-09-07T23:41:22.419Z,15.20
2022-09-07T23:43:48.773Z,15.20
2022-09-07T23:46:15.122Z,15.20
2022-09-07T23:48:44.790Z,15.10
2022-09-07T23:51:11.643Z,15.10
2022-09-07T23:53:38.165Z,15.10
2022-09-07T23:56:04.928Z,15.10
2022-09-07T23:58:31.082Z,15.40
